Detall de PIREP

Printer-friendly versionPDF version

[2012/10/07 13:54:00]
Flight IATA:CT1005
Pilot Number:037
Company ICAO:CAT
Aircraft Type:B752/E
PAX:143
Aircraft Registration:PAX
Departing Airport: EFRO
Destination Airport: EVRA
Alternate Airport:EYSA
Online: VATSIM
Route:VAPOT T9 UTUNU M857 TLL L729 LUTAL

Flight Level:F390
No Slew and time accel
No pause
Crash detect
Detect pilot in Cockpit between each 30 and 45 minutes
13:54 Zero fuel Weight: 170113 Lbs, Fuel Weight: 22162 Lbs
13:54 VATSIM:EFRO 071320Z AUTO 04009KT 9999 FEW016 OVC036 06/04 Q0996
13:54 VATSIM:EVRA 071320Z 21012KT 9999 SCT026CB 11/07 Q1003 R18/090070 NOSIG
14:00 Parking Brakes off
14:07 Take-off
14:07 Take off Weight: 191292 Lbs
14:07 Wind: 032º @ 009 Knots Heading: 037º
14:07 POS N66º 33´ 51´´ E025º 49´ 45´´
14:07 Gear Up: 183 Knots
14:07 Flaps:2 at 183 Knots
14:07 Flaps:1 at 209 Knots
14:08 Flaps:0 at 215 Knots
14:22 Wind:089º@031 Knots Heading: 176º Ground Speed: 472 Knots Altitude 31154 ft
14:25 TOC
14:25 Fuel Weight: 16785 Lb
14:37 Wind:159º@016 Knots Heading: 182º Ground Speed: 448 Knots Altitude 38385 ft
14:52 Wind:197º@020 Knots Heading: 178º Ground Speed: 443 Knots Altitude 38425 ft
15:07 Wind:208º@038 Knots Heading: 203º Ground Speed: 417 Knots Altitude 38484 ft
15:14 TOD
15:14 Fuel Weight: 11309 Lb
15:22 Wind:211º@046 Knots Heading: 194º Ground Speed: 330 Knots Altitude 26689 ft
15:37 Wind:210º@018 Knots Heading: 187º Ground Speed: 209 Knots Altitude 3248 ft
15:37 Flaps:1 at 216 Knots
15:38 Flaps:2 at 180 Knots
15:38 Flaps:3 at 173 Knots
15:38 Gear Down: 158 Knots
15:39 Flaps:4 at 149 Knots
15:40 Flaps:5 at 139 Knots
15:41 TouchDown:Rate -92 ft/min Speed: 129 Knots
15:41 VATSIM:EVRA 071520Z 20009KT 9999 FEW050CB 09/06 Q1003 R18/090070 NOSIG
15:41 Land
15:41 Wind:195º@009 Knots
15:41 Heading: 184º
15:41 Flight Duration: 01:34
15:41 Landing Weight: 179591 Lbs
15:41 POS N56º 55´ 10´´ E023º 58´ 13´´
15:45 Parking brakes on
15:45 Block to Block Duration: 01:45
15:45 Final Fuel: 9054 Lbls
15:45 Spent Fuel: 13108 Lbls
15:45 Flight Length: 488 NM
15:45 TOD Land Length: 123 NM

Exportar CSV

Powered by Drupal - Modified by Danger4k